createdAt,value
2017-04-20T00:00:13.507Z,1029.68
2017-04-20T00:01:13.486Z,1029.65
2017-04-20T00:02:13.461Z,1029.67
2017-04-20T00:03:13.444Z,1029.66
2017-04-20T00:04:13.411Z,1029.66
2017-04-20T00:05:19.664Z,1029.66
2017-04-20T00:06:13.368Z,1029.66
2017-04-20T00:07:13.343Z,1029.63
2017-04-20T00:08:13.319Z,1029.65
2017-04-20T00:09:13.296Z,1029.59
2017-04-20T00:10:13.269Z,1029.62
2017-04-20T00:11:13.248Z,1029.61
2017-04-20T00:12:13.221Z,1029.62
2017-04-20T00:13:13.198Z,1029.66
2017-04-20T00:14:13.175Z,1029.69
2017-04-20T00:15:32.357Z,1029.66
2017-04-20T00:16:13.124Z,1029.64
2017-04-20T00:17:13.106Z,1029.68
2017-04-20T00:18:13.081Z,1029.67
2017-04-20T00:19:13.056Z,1029.63
2017-04-20T00:20:13.030Z,1029.68
2017-04-20T00:21:13.012Z,1029.68
2017-04-20T00:22:12.982Z,1029.69
2017-04-20T00:23:12.962Z,1029.66
2017-04-20T00:24:12.935Z,1029.68
2017-04-20T00:25:12.913Z,1029.68
2017-04-20T00:26:12.889Z,1029.64
2017-04-20T00:27:12.859Z,1029.64
2017-04-20T00:28:12.843Z,1029.65
2017-04-20T00:29:12.823Z,1029.61
2017-04-20T00:30:12.793Z,1029.62
2017-04-20T00:31:12.772Z,1029.59
2017-04-20T00:32:12.743Z,1029.58
2017-04-20T00:33:12.721Z,1029.57
2017-04-20T00:34:12.702Z,1029.53
2017-04-20T00:35:12.669Z,1029.51
2017-04-20T00:36:12.644Z,1029.49
2017-04-20T00:37:12.620Z,1029.51
2017-04-20T00:38:12.596Z,1029.55
2017-04-20T00:39:12.582Z,1029.49
2017-04-20T00:40:12.554Z,1029.52
2017-04-20T00:41:12.524Z,1029.52
2017-04-20T00:42:12.502Z,1029.5
2017-04-20T00:43:12.480Z,1029.49
2017-04-20T00:44:12.458Z,1029.46
2017-04-20T00:45:12.432Z,1029.47
2017-04-20T00:46:12.412Z,1029.49
2017-04-20T00:47:12.382Z,1029.44
2017-04-20T00:48:12.356Z,1029.45
2017-04-20T00:49:12.336Z,1029.44
2017-04-20T00:50:12.309Z,1029.42
2017-04-20T00:51:12.285Z,1029.43
2017-04-20T00:52:12.263Z,1029.45
2017-04-20T00:53:12.241Z,1029.45
2017-04-20T00:54:12.213Z,1029.43
2017-04-20T00:55:12.192Z,1029.43
2017-04-20T00:56:12.174Z,1029.4
2017-04-20T00:57:12.143Z,1029.4
2017-04-20T00:58:12.121Z,1029.42
2017-04-20T00:59:12.093Z,1029.41
2017-04-20T01:00:12.072Z,1029.39
2017-04-20T01:01:12.051Z,1029.38
2017-04-20T01:02:12.019Z,1029.4
2017-04-20T01:03:11.996Z,1029.4
2017-04-20T01:04:11.974Z,1029.35
2017-04-20T01:05:11.948Z,1029.37
2017-04-20T01:06:11.922Z,1029.39
2017-04-20T01:07:11.901Z,1029.38
2017-04-20T01:08:11.871Z,1029.36
2017-04-20T01:09:11.850Z,1029.38
2017-04-20T01:10:11.829Z,1029.4
2017-04-20T01:11:11.803Z,1029.36
2017-04-20T01:12:11.785Z,1029.34
2017-04-20T01:13:11.750Z,1029.36
2017-04-20T01:14:11.731Z,1029.35
2017-04-20T01:15:11.705Z,1029.34
2017-04-20T01:16:11.680Z,1029.32
2017-04-20T01:17:11.654Z,1029.34
2017-04-20T01:18:11.632Z,1029.29
2017-04-20T01:19:11.606Z,1029.34
2017-04-20T01:20:11.582Z,1029.33
2017-04-20T01:21:11.560Z,1029.33
2017-04-20T01:22:11.533Z,1029.34
2017-04-20T01:23:11.511Z,1029.32
2017-04-20T01:24:11.481Z,1029.33
2017-04-20T01:25:11.460Z,1029.35
2017-04-20T01:26:11.440Z,1029.37
2017-04-20T01:27:11.409Z,1029.39
2017-04-20T01:28:11.386Z,1029.38
2017-04-20T01:29:11.364Z,1029.41
2017-04-20T01:30:11.341Z,1029.41
2017-04-20T01:31:11.311Z,1029.41
2017-04-20T01:32:11.290Z,1029.42
2017-04-20T01:33:11.267Z,1029.47
2017-04-20T01:34:43.940Z,1029.49
2017-04-20T01:35:43.904Z,1029.5
2017-04-20T01:36:43.881Z,1029.52
2017-04-20T01:37:43.857Z,1029.51
2017-04-20T01:38:43.832Z,1029.49
2017-04-20T01:39:43.811Z,1029.51
2017-04-20T01:40:43.783Z,1029.48
2017-04-20T01:41:43.760Z,1029.51
2017-04-20T01:42:43.731Z,1029.5
2017-04-20T01:43:43.708Z,1029.49
2017-04-20T01:44:43.684Z,1029.47
2017-04-20T01:45:43.661Z,1029.47
2017-04-20T01:46:43.641Z,1029.46
2017-04-20T01:47:43.612Z,1029.47
2017-04-20T01:48:43.586Z,1029.46
2017-04-20T01:49:43.565Z,1029.46
2017-04-20T01:50:43.536Z,1029.5
2017-04-20T01:51:43.513Z,1029.45
2017-04-20T01:52:43.488Z,1029.46
2017-04-20T01:53:43.465Z,1029.42
2017-04-20T01:54:43.440Z,1029.44
2017-04-20T01:55:43.413Z,1029.44
2017-04-20T01:56:43.392Z,1029.46
2017-04-20T01:57:43.370Z,1029.41
2017-04-20T01:58:43.342Z,1029.44
2017-04-20T01:59:43.316Z,1029.45
2017-04-20T02:00:43.291Z,1029.46
2017-04-20T02:01:43.264Z,1029.41
2017-04-20T02:02:43.244Z,1029.41
2017-04-20T02:03:43.222Z,1029.41
2017-04-20T02:04:43.194Z,1029.42
2017-04-20T02:05:43.171Z,1029.38
2017-04-20T02:06:43.142Z,1029.41
2017-04-20T02:07:43.118Z,1029.4
2017-04-20T02:08:43.095Z,1029.4
2017-04-20T02:09:43.070Z,1029.41
2017-04-20T02:10:43.047Z,1029.38
2017-04-20T02:11:43.022Z,1029.38
2017-04-20T02:12:43.007Z,1029.37
2017-04-20T02:13:42.973Z,1029.35
2017-04-20T02:14:42.944Z,1029.34
2017-04-20T02:15:42.924Z,1029.35
2017-04-20T02:16:42.903Z,1029.28
2017-04-20T02:17:42.871Z,1029.32
2017-04-20T02:18:42.847Z,1029.31
2017-04-20T02:19:42.823Z,1029.37
2017-04-20T02:20:42.802Z,1029.39
2017-04-20T02:21:42.773Z,1029.41
2017-04-20T02:22:42.751Z,1029.41
2017-04-20T02:23:42.725Z,1029.39
2017-04-20T02:24:42.700Z,1029.42
2017-04-20T02:25:42.674Z,1029.45
2017-04-20T02:26:42.653Z,1029.42
2017-04-20T02:27:42.628Z,1029.41
2017-04-20T02:28:42.601Z,1029.39
2017-04-20T02:29:42.580Z,1029.36
2017-04-20T02:30:42.552Z,1029.38
2017-04-20T02:31:42.530Z,1029.4
2017-04-20T02:32:42.499Z,1029.39
2017-04-20T02:33:42.480Z,1029.38
2017-04-20T02:34:42.453Z,1029.4
2017-04-20T02:35:42.425Z,1029.39
2017-04-20T02:36:42.403Z,1029.41
2017-04-20T02:37:42.381Z,1029.42
2017-04-20T02:38:42.352Z,1029.44
2017-04-20T02:39:42.332Z,1029.45
2017-04-20T02:40:42.302Z,1029.41
2017-04-20T02:41:42.283Z,1029.43
2017-04-20T02:42:42.252Z,1029.41
2017-04-20T02:43:42.233Z,1029.42
2017-04-20T02:44:42.205Z,1029.43
2017-04-20T02:45:42.183Z,1029.46
2017-04-20T02:46:42.159Z,1029.47
2017-04-20T02:47:42.133Z,1029.49
2017-04-20T02:48:42.111Z,1029.51
2017-04-20T02:49:42.085Z,1029.52
2017-04-20T02:50:42.052Z,1029.54
2017-04-20T02:51:42.027Z,1029.53
2017-04-20T02:52:42.015Z,1029.51
2017-04-20T02:53:41.981Z,1029.55
2017-04-20T02:54:41.952Z,1029.54
2017-04-20T02:55:41.927Z,1029.57
2017-04-20T02:56:41.902Z,1029.53
2017-04-20T02:57:41.882Z,1029.55
2017-04-20T02:58:41.853Z,1029.55
2017-04-20T02:59:41.830Z,1029.55
2017-04-20T03:00:41.812Z,1029.61
2017-04-20T03:01:41.781Z,1029.55
2017-04-20T03:02:41.755Z,1029.59
2017-04-20T03:03:41.727Z,1029.56
2017-04-20T03:04:41.701Z,1029.55
2017-04-20T03:05:41.681Z,1029.62
2017-04-20T03:06:41.651Z,1029.61
2017-04-20T03:07:41.640Z,1029.6
2017-04-20T03:08:41.602Z,1029.61
2017-04-20T03:09:41.582Z,1029.61
2017-04-20T03:10:41.554Z,1029.6
2017-04-20T03:11:41.531Z,1029.63
2017-04-20T03:12:41.503Z,1029.63
2017-04-20T03:13:41.475Z,1029.58
2017-04-20T03:14:41.452Z,1029.55
2017-04-20T03:15:41.427Z,1029.57
2017-04-20T03:16:41.403Z,1029.53
2017-04-20T03:17:41.379Z,1029.51
2017-04-20T03:18:41.352Z,1029.51
2017-04-20T03:19:41.335Z,1029.53
2017-04-20T03:20:41.302Z,1029.54
2017-04-20T03:21:41.284Z,1029.51
2017-04-20T03:22:41.252Z,1029.51
2017-04-20T03:23:41.231Z,1029.5
2017-04-20T03:24:41.203Z,1029.51
2017-04-20T03:25:41.184Z,1029.48
2017-04-20T03:26:41.153Z,1029.49
2017-04-20T03:27:41.130Z,1029.49
2017-04-20T03:28:41.101Z,1029.5
2017-04-20T03:29:41.078Z,1029.56
2017-04-20T03:30:41.053Z,1029.54
2017-04-20T03:31:41.031Z,1029.51
2017-04-20T03:32:41.002Z,1029.51
2017-04-20T03:33:40.983Z,1029.51
2017-04-20T03:34:40.954Z,1029.5
2017-04-20T03:35:40.929Z,1029.46
2017-04-20T03:36:40.902Z,1029.53
2017-04-20T03:37:40.876Z,1029.51
2017-04-20T03:38:40.851Z,1029.53
2017-04-20T03:39:40.833Z,1029.54
2017-04-20T03:40:40.803Z,1029.49
2017-04-20T03:41:40.773Z,1029.49
2017-04-20T03:42:40.748Z,1029.48
2017-04-20T03:43:40.727Z,1029.49
2017-04-20T03:44:40.702Z,1029.5
2017-04-20T03:45:40.672Z,1029.47
2017-04-20T03:46:40.656Z,1029.49
2017-04-20T03:47:40.625Z,1029.45
2017-04-20T03:48:40.602Z,1029.43
2017-04-20T03:49:40.572Z,1029.42
2017-04-20T03:50:40.554Z,1029.41
2017-04-20T03:51:40.523Z,1029.4
2017-04-20T03:52:40.503Z,1029.4
2017-04-20T03:53:40.470Z,1029.37
2017-04-20T03:54:40.453Z,1029.37
2017-04-20T03:55:40.442Z,1029.39
2017-04-20T03:56:40.399Z,1029.37
2017-04-20T03:57:40.374Z,1029.39
2017-04-20T03:58:40.352Z,1029.42
2017-04-20T03:59:40.324Z,1029.44
2017-04-20T04:00:40.301Z,1029.42
2017-04-20T04:01:40.270Z,1029.39
2017-04-20T04:02:40.253Z,1029.41
2017-04-20T04:03:40.221Z,1029.4
2017-04-20T04:04:40.192Z,1029.4
2017-04-20T04:05:40.173Z,1029.41
2017-04-20T04:06:40.143Z,1029.41
2017-04-20T04:07:40.124Z,1029.41
2017-04-20T04:08:40.114Z,1029.45
2017-04-20T04:09:40.074Z,1029.45
2017-04-20T04:10:40.043Z,1029.49
2017-04-20T04:11:40.015Z,1029.44
2017-04-20T04:12:39.992Z,1029.48
2017-04-20T04:13:39.972Z,1029.48
2017-04-20T04:14:39.943Z,1029.48
2017-04-20T04:15:39.922Z,1029.51
2017-04-20T04:16:39.892Z,1029.53
2017-04-20T04:17:39.873Z,1029.51
2017-04-20T04:18:39.842Z,1029.51
2017-04-20T04:19:39.812Z,1029.52
2017-04-20T04:20:39.793Z,1029.53
2017-04-20T04:21:39.766Z,1029.54
2017-04-20T04:22:39.742Z,1029.53
2017-04-20T04:23:39.715Z,1029.53
2017-04-20T04:24:39.693Z,1029.53
2017-04-20T04:25:39.666Z,1029.55
2017-04-20T04:26:39.642Z,1029.54
2017-04-20T04:27:39.611Z,1029.59
2017-04-20T04:28:39.591Z,1029.6
2017-04-20T04:29:39.564Z,1029.59
2017-04-20T04:30:39.542Z,1029.59
2017-04-20T04:31:39.514Z,1029.56
2017-04-20T04:32:39.486Z,1029.58
2017-04-20T04:33:39.461Z,1029.59
2017-04-20T04:34:39.432Z,1029.59
2017-04-20T04:35:39.412Z,1029.63
2017-04-20T04:36:39.383Z,1029.56
2017-04-20T04:37:39.364Z,1029.62
2017-04-20T04:38:39.332Z,1029.58
2017-04-20T04:39:39.307Z,1029.57
2017-04-20T04:40:39.282Z,1029.58
2017-04-20T04:41:39.258Z,1029.61
2017-04-20T04:42:39.228Z,1029.54
2017-04-20T04:43:39.213Z,1029.53
2017-04-20T04:44:39.178Z,1029.52
2017-04-20T04:45:39.151Z,1029.54
2017-04-20T04:46:39.129Z,1029.52
2017-04-20T04:47:39.099Z,1029.54
2017-04-20T04:48:39.082Z,1029.59
2017-04-20T04:49:39.051Z,1029.59
2017-04-20T04:50:39.025Z,1029.55
2017-04-20T04:51:39.005Z,1029.62
2017-04-20T04:52:38.974Z,1029.6
2017-04-20T04:53:38.952Z,1029.58
2017-04-20T04:54:38.922Z,1029.6
2017-04-20T04:55:38.902Z,1029.58
2017-04-20T04:56:38.875Z,1029.59
2017-04-20T04:57:38.850Z,1029.56
2017-04-20T04:58:38.821Z,1029.59
2017-04-20T04:59:38.803Z,1029.58
2017-04-20T05:00:38.772Z,1029.55
2017-04-20T05:01:38.752Z,1029.53
2017-04-20T05:02:38.721Z,1029.57
2017-04-20T05:03:38.695Z,1029.57
2017-04-20T05:04:38.672Z,1029.58
2017-04-20T05:05:38.649Z,1029.58
2017-04-20T05:06:38.622Z,1029.55
2017-04-20T05:07:38.597Z,1029.54
2017-04-20T05:08:38.570Z,1029.55
2017-04-20T05:09:38.547Z,1029.56
2017-04-20T05:10:38.522Z,1029.58
2017-04-20T05:11:38.502Z,1029.62
2017-04-20T05:12:38.468Z,1029.6
2017-04-20T05:13:38.442Z,1029.6
2017-04-20T05:14:38.421Z,1029.62
2017-04-20T05:15:38.392Z,1029.61
2017-04-20T05:16:38.368Z,1029.62
2017-04-20T05:17:38.349Z,1029.69
2017-04-20T05:18:38.318Z,1029.63
2017-04-20T05:19:38.292Z,1029.69
2017-04-20T05:20:38.269Z,1029.66
2017-04-20T05:21:38.242Z,1029.69
2017-04-20T05:22:38.215Z,1029.7
2017-04-20T05:23:38.191Z,1029.7
2017-04-20T05:24:38.166Z,1029.72
2017-04-20T05:25:38.142Z,1029.71
2017-04-20T05:26:38.114Z,1029.76
2017-04-20T05:27:38.093Z,1029.72
2017-04-20T05:28:38.063Z,1029.78
2017-04-20T05:29:38.038Z,1029.73
2017-04-20T05:30:38.016Z,1029.75
2017-04-20T05:31:37.993Z,1029.71
2017-04-20T05:32:37.965Z,1029.74
2017-04-20T05:33:37.939Z,1029.71
2017-04-20T05:34:37.912Z,1029.73
2017-04-20T05:35:37.887Z,1029.75
2017-04-20T05:36:37.872Z,1029.78
2017-04-20T05:37:37.843Z,1029.8
2017-04-20T05:38:37.813Z,1029.78
2017-04-20T05:39:37.787Z,1029.78
2017-04-20T05:40:37.762Z,1029.78
2017-04-20T05:41:37.738Z,1029.75
2017-04-20T05:42:37.711Z,1029.8
2017-04-20T05:43:37.692Z,1029.81
2017-04-20T05:44:37.665Z,1029.85
2017-04-20T05:45:37.639Z,1029.84
2017-04-20T05:46:37.613Z,1029.83
2017-04-20T05:47:37.593Z,1029.9
2017-04-20T05:48:37.561Z,1029.86
2017-04-20T05:49:37.539Z,1029.87
2017-04-20T05:50:37.514Z,1029.85
2017-04-20T05:51:37.487Z,1029.84
2017-04-20T05:52:37.468Z,1029.83
2017-04-20T05:53:37.443Z,1029.81
2017-04-20T05:54:37.414Z,1029.83
2017-04-20T05:55:37.388Z,1029.83
2017-04-20T05:56:37.363Z,1029.8
2017-04-20T05:57:37.342Z,1029.8
2017-04-20T05:58:37.321Z,1029.8
2017-04-20T05:59:37.292Z,1029.82
2017-04-20T06:00:37.267Z,1029.8
2017-04-20T06:01:37.252Z,1029.79
2017-04-20T06:02:37.217Z,1029.79
2017-04-20T06:03:37.201Z,1029.82
2017-04-20T06:04:37.172Z,1029.85
2017-04-20T06:05:37.147Z,1029.81
2017-04-20T06:06:37.124Z,1029.81
2017-04-20T06:07:37.097Z,1029.83
2017-04-20T06:08:37.072Z,1029.83
2017-04-20T06:09:37.054Z,1029.84
2017-04-20T06:10:37.021Z,1029.86
2017-04-20T06:11:37.004Z,1029.88
2017-04-20T06:12:36.972Z,1029.86
2017-04-20T06:13:36.952Z,1029.89
2017-04-20T06:14:36.932Z,1029.89
2017-04-20T06:15:36.902Z,1029.87
2017-04-20T06:16:36.878Z,1029.88
2017-04-20T06:17:36.852Z,1029.89
2017-04-20T06:18:36.835Z,1029.89
2017-04-20T06:19:36.807Z,1029.88
2017-04-20T06:20:36.780Z,1029.89
2017-04-20T06:21:36.761Z,1029.89
2017-04-20T06:22:36.732Z,1029.92
2017-04-20T06:23:36.712Z,1029.86
2017-04-20T06:24:36.685Z,1029.91
2017-04-20T06:25:36.661Z,1029.87
2017-04-20T06:26:36.653Z,1029.88
2017-04-20T06:27:36.616Z,1029.88
2017-04-20T06:28:36.587Z,1029.93
2017-04-20T06:29:36.569Z,1029.91
2017-04-20T06:30:36.551Z,1029.91
2017-04-20T06:31:36.523Z,1029.91
2017-04-20T06:32:36.504Z,1029.91
2017-04-20T06:33:36.472Z,1029.91
2017-04-20T06:34:36.454Z,1029.93
2017-04-20T06:35:36.425Z,1029.92
2017-04-20T06:36:36.410Z,1029.89
2017-04-20T06:37:36.396Z,1029.94
2017-04-20T06:38:36.359Z,1029.91
2017-04-20T06:39:36.343Z,1029.91
2017-04-20T06:40:36.315Z,1029.92
2017-04-20T06:41:36.293Z,1029.92
2017-04-20T06:42:36.263Z,1029.91
2017-04-20T06:43:36.246Z,1029.88
2017-04-20T06:44:36.218Z,1029.91
2017-04-20T06:45:36.196Z,1029.89
2017-04-20T06:46:36.174Z,1029.96
2017-04-20T06:47:36.154Z,1029.93
2017-04-20T06:48:36.133Z,1029.93
2017-04-20T06:49:36.103Z,1029.98
2017-04-20T06:50:36.085Z,1029.95
2017-04-20T06:51:36.061Z,1029.98
2017-04-20T06:52:36.039Z,1030.33
2017-04-20T06:53:36.013Z,1030.51
2017-04-20T06:54:35.987Z,1030.33
2017-04-20T06:55:35.975Z,1030.06
2017-04-20T06:56:35.955Z,1030.03
2017-04-20T06:57:35.922Z,1030.04
2017-04-20T06:58:35.903Z,1030.05
2017-04-20T06:59:35.877Z,1030.07
2017-04-20T07:00:35.862Z,1030.1
2017-04-20T07:01:35.832Z,1030.16
2017-04-20T07:02:35.812Z,1030.18
2017-04-20T07:03:35.793Z,1030.21
2017-04-20T07:04:35.773Z,1030.19
2017-04-20T07:05:35.750Z,1030.25
2017-04-20T07:06:35.726Z,1030.27
2017-04-20T07:07:35.713Z,1030.3
2017-04-20T07:08:35.689Z,1030.35
2017-04-20T07:09:35.678Z,1030.35
2017-04-20T07:10:35.654Z,1030.37
2017-04-20T07:11:35.633Z,1030.34
2017-04-20T07:12:35.612Z,1030.34
2017-04-20T07:13:35.601Z,1030.33
2017-04-20T07:14:35.582Z,1030.33
2017-04-20T07:15:35.564Z,1030.3
2017-04-20T07:16:35.544Z,1030.38
2017-04-20T07:17:35.534Z,1030.38
2017-04-20T07:18:35.515Z,1030.49
2017-04-20T07:19:35.506Z,1030.67
2017-04-20T07:20:35.487Z,1030.81
2017-04-20T07:21:35.472Z,1030.84
2017-04-20T07:22:35.454Z,1030.8
2017-04-20T07:23:35.441Z,1030.8
2017-04-20T07:24:35.422Z,1030.7
2017-04-20T07:25:35.407Z,1030.67
2017-04-20T07:26:35.403Z,1030.6
2017-04-20T07:27:35.384Z,1030.63
2017-04-20T07:28:35.372Z,1030.66
2017-04-20T07:29:35.357Z,1030.63
2017-04-20T07:30:35.350Z,1030.63
2017-04-20T07:31:35.322Z,1030.58
2017-04-20T07:32:35.313Z,1030.59
2017-04-20T07:33:35.302Z,1030.61
2017-04-20T07:34:35.282Z,1030.64
2017-04-20T07:35:35.271Z,1030.61
2017-04-20T07:36:35.261Z,1030.55
2017-04-20T07:37:35.246Z,1030.57
2017-04-20T07:38:35.231Z,1030.62
2017-04-20T07:39:35.218Z,1030.58
2017-04-20T07:40:35.212Z,1030.58
2017-04-20T07:41:35.200Z,1030.54
2017-04-20T07:42:35.192Z,1030.6
2017-04-20T07:43:35.173Z,1030.55
2017-04-20T07:44:35.164Z,1030.54
2017-04-20T07:45:35.155Z,1030.55
2017-04-20T07:46:35.143Z,1030.52
2017-04-20T07:47:35.131Z,1030.49
2017-04-20T07:48:35.122Z,1030.55
2017-04-20T07:49:35.115Z,1030.51
2017-04-20T07:50:35.099Z,1030.46
2017-04-20T07:51:35.092Z,1030.53
2017-04-20T07:52:35.083Z,1030.56
2017-04-20T07:53:35.075Z,1030.51
2017-04-20T07:54:35.073Z,1030.51
2017-04-20T07:55:35.066Z,1030.55
2017-04-20T07:56:35.043Z,1030.56
2017-04-20T07:57:35.037Z,1030.57
2017-04-20T07:58:35.022Z,1030.62
2017-04-20T07:59:35.022Z,1030.55
2017-04-20T08:00:35.013Z,1030.53
2017-04-20T08:01:34.999Z,1030.58
2017-04-20T08:02:34.993Z,1030.54
2017-04-20T08:03:34.981Z,1030.55
2017-04-20T08:04:34.974Z,1030.55
2017-04-20T08:05:35.070Z,1030.6
2017-04-20T08:06:34.962Z,1030.55
2017-04-20T08:07:35.049Z,1030.57
2017-04-20T08:08:34.945Z,1030.66
2017-04-20T08:09:34.933Z,1030.74
2017-04-20T08:10:34.922Z,1030.75
2017-04-20T08:11:34.920Z,1030.78
2017-04-20T08:12:34.915Z,1030.71
2017-04-20T08:13:34.905Z,1030.68
2017-04-20T08:14:34.894Z,1030.64
2017-04-20T08:15:34.917Z,1030.53
2017-04-20T08:16:34.881Z,1030.6
2017-04-20T08:17:34.870Z,1030.54
2017-04-20T08:18:34.864Z,1030.52
2017-04-20T08:19:34.855Z,1030.35
2017-04-20T08:20:34.853Z,1030.33
2017-04-20T08:21:34.843Z,1030.55
2017-04-20T08:22:34.835Z,1030.53
2017-04-20T08:23:34.823Z,1030.5
2017-04-20T08:24:34.812Z,1030.44
2017-04-20T08:25:34.803Z,1030.51
2017-04-20T08:26:34.792Z,1030.53
2017-04-20T08:27:34.785Z,1030.45
2017-04-20T08:28:34.785Z,1030.43
2017-04-20T08:29:34.773Z,1030.5
2017-04-20T08:30:34.763Z,1030.53
2017-04-20T08:31:34.751Z,1030.49
2017-04-20T08:32:34.741Z,1030.5
2017-04-20T08:33:34.733Z,1030.5
2017-04-20T08:34:34.722Z,1030.51
2017-04-20T08:35:34.720Z,1030.56
2017-04-20T08:36:34.707Z,1030.53
2017-04-20T08:37:34.702Z,1030.56
2017-04-20T08:38:34.693Z,1030.51
2017-04-20T08:39:34.681Z,1030.58
2017-04-20T08:40:34.682Z,1030.58
2017-04-20T08:41:34.667Z,1030.64
2017-04-20T08:42:34.665Z,1030.63
2017-04-20T08:43:34.652Z,1030.63
2017-04-20T08:44:34.654Z,1030.58
2017-04-20T08:45:34.636Z,1030.58
2017-04-20T08:46:34.636Z,1030.62
2017-04-20T08:47:34.623Z,1030.6
2017-04-20T08:48:34.663Z,1030.52
2017-04-20T08:49:34.609Z,1030.54
2017-04-20T08:50:34.605Z,1030.49
2017-04-20T08:51:34.593Z,1030.47
2017-04-20T08:52:34.636Z,1030.4
2017-04-20T08:53:34.580Z,1030.45
2017-04-20T08:54:34.578Z,1030.49
2017-04-20T08:55:34.567Z,1030.47
2017-04-20T08:56:34.562Z,1030.52
2017-04-20T08:57:34.550Z,1030.47
2017-04-20T08:58:34.544Z,1030.44
2017-04-20T08:59:34.538Z,1030.46
2017-04-20T09:00:34.533Z,1030.39
2017-04-20T09:01:34.522Z,1030.4
2017-04-20T09:02:34.516Z,1030.41
2017-04-20T09:03:34.518Z,1030.44
2017-04-20T09:04:34.504Z,1030.41
2017-04-20T09:05:34.498Z,1030.42
2017-04-20T09:06:34.492Z,1030.39
2017-04-20T09:07:34.483Z,1030.4
2017-04-20T09:08:34.487Z,1030.41
2017-04-20T09:09:34.472Z,1030.47
2017-04-20T09:10:34.462Z,1030.45
2017-04-20T09:11:34.461Z,1030.44
2017-04-20T09:12:34.452Z,1030.45
2017-04-20T09:13:34.447Z,1030.4
2017-04-20T09:14:34.436Z,1030.42
2017-04-20T09:15:34.431Z,1030.41
2017-04-20T09:16:34.430Z,1030.4
2017-04-20T09:17:34.424Z,1030.4
2017-04-20T09:18:34.416Z,1030.4
2017-04-20T09:19:34.406Z,1030.42
2017-04-20T09:20:34.403Z,1030.46
2017-04-20T09:21:34.395Z,1030.47
2017-04-20T09:22:34.387Z,1030.41
2017-04-20T09:23:34.385Z,1030.37
2017-04-20T09:24:34.388Z,1030.38
2017-04-20T09:25:34.371Z,1030.35
2017-04-20T09:26:34.362Z,1030.36
2017-04-20T09:27:34.355Z,1030.36
2017-04-20T09:28:34.352Z,1030.33
2017-04-20T09:29:34.344Z,1030.27
2017-04-20T09:30:34.334Z,1030.29
2017-04-20T09:31:34.335Z,1030.26
2017-04-20T09:32:34.325Z,1030.31
2017-04-20T09:33:34.311Z,1030.31
2017-04-20T09:34:34.312Z,1030.3
2017-04-20T09:35:34.303Z,1030.25
2017-04-20T09:36:34.292Z,1030.26
2017-04-20T09:37:34.286Z,1030.25
2017-04-20T09:38:34.284Z,1030.29
2017-04-20T09:39:34.273Z,1030.26
2017-04-20T09:40:34.262Z,1030.24
2017-04-20T09:41:34.263Z,1030.23
2017-04-20T09:42:34.252Z,1030.22
2017-04-20T09:43:34.241Z,1030.24
2017-04-20T09:44:34.250Z,1030.19
2017-04-20T09:45:34.233Z,1030.17
2017-04-20T09:46:34.223Z,1030.26
2017-04-20T09:47:34.215Z,1030.34
2017-04-20T09:48:34.208Z,1030.35
2017-04-20T09:49:34.204Z,1030.31
2017-04-20T09:50:34.192Z,1030.31
2017-04-20T09:51:34.182Z,1030.3
2017-04-20T09:52:34.173Z,1030.21
2017-04-20T09:53:34.168Z,1030.2
2017-04-20T09:54:34.162Z,1030.22
2017-04-20T09:55:34.149Z,1030.22
2017-04-20T09:56:34.146Z,1030.23
2017-04-20T09:57:34.143Z,1030.23
2017-04-20T09:58:34.131Z,1030.22
2017-04-20T09:59:34.127Z,1030.18
2017-04-20T10:00:34.111Z,1030.15
2017-04-20T10:01:34.116Z,1030.16
2017-04-20T10:02:34.099Z,1030.14
2017-04-20T10:03:34.083Z,1030.13
2017-04-20T10:04:34.075Z,1030.1
2017-04-20T10:05:34.074Z,1030.1
2017-04-20T10:06:34.071Z,1030.08
2017-04-20T10:07:34.052Z,1030.14
2017-04-20T10:08:34.047Z,1030.16
2017-04-20T10:09:34.036Z,1030.13
2017-04-20T10:10:34.032Z,1030.14
2017-04-20T10:11:34.012Z,1030.18
2017-04-20T10:12:34.002Z,1030.12
2017-04-20T10:13:33.994Z,1030.13
2017-04-20T10:14:33.990Z,1030.14
2017-04-20T10:15:33.984Z,1030.19
2017-04-20T10:16:33.963Z,1030.14
2017-04-20T10:17:33.952Z,1030.11
2017-04-20T10:18:33.945Z,1030.03
2017-04-20T10:19:33.933Z,1030.1
2017-04-20T10:20:33.921Z,1030.04
2017-04-20T10:21:33.913Z,1030.03
2017-04-20T10:22:33.913Z,1030.05
2017-04-20T10:23:33.891Z,1030.01
2017-04-20T10:24:33.880Z,1030.01
2017-04-20T10:25:33.867Z,1030.01
2017-04-20T10:26:33.857Z,1029.99
2017-04-20T10:27:33.843Z,1030.04
2017-04-20T10:28:33.832Z,1029.99
2017-04-20T10:29:33.824Z,1030
2017-04-20T10:30:33.813Z,1029.99
2017-04-20T10:31:33.805Z,1029.99
2017-04-20T10:32:33.792Z,1029.99
2017-04-20T10:33:33.785Z,1030.03
2017-04-20T10:34:33.764Z,1029.99
2017-04-20T10:35:33.755Z,1030
2017-04-20T10:36:33.739Z,1030.02
2017-04-20T10:37:33.734Z,1030
2017-04-20T10:38:33.721Z,1029.96
2017-04-20T10:39:33.715Z,1029.96
2017-04-20T10:40:33.697Z,1029.95
2017-04-20T10:41:33.688Z,1029.97
2017-04-20T10:42:33.670Z,1029.9
2017-04-20T10:43:33.663Z,1029.94
2017-04-20T10:44:33.651Z,1029.93
2017-04-20T10:45:33.644Z,1029.93
2017-04-20T10:46:33.622Z,1029.92
2017-04-20T10:47:33.615Z,1029.89
2017-04-20T10:48:33.602Z,1029.9
2017-04-20T10:49:33.591Z,1029.86
2017-04-20T10:50:33.577Z,1029.87
2017-04-20T10:51:33.570Z,1029.81
2017-04-20T10:52:33.553Z,1029.8
2017-04-20T10:53:33.545Z,1029.83
2017-04-20T10:54:33.530Z,1029.82
2017-04-20T10:55:33.522Z,1029.82
2017-04-20T10:56:33.505Z,1029.78
2017-04-20T10:57:33.493Z,1029.77
2017-04-20T10:58:33.480Z,1029.73
2017-04-20T10:59:33.464Z,1029.72
2017-04-20T11:00:33.459Z,1029.71
2017-04-20T11:01:33.475Z,1029.68
2017-04-20T11:02:33.431Z,1029.69
2017-04-20T11:03:33.419Z,1029.71
2017-04-20T11:04:33.411Z,1029.69
2017-04-20T11:05:33.402Z,1029.66
2017-04-20T11:06:33.380Z,1029.62
2017-04-20T11:07:33.379Z,1029.65
2017-04-20T11:08:33.362Z,1029.66
2017-04-20T11:09:33.426Z,1029.61
2017-04-20T11:10:33.334Z,1029.66
2017-04-20T11:11:33.424Z,1029.65
2017-04-20T11:12:33.309Z,1029.65
2017-04-20T11:13:33.401Z,1029.71
2017-04-20T11:14:33.283Z,1029.65
2017-04-20T11:15:33.272Z,1029.62
2017-04-20T11:16:33.263Z,1029.61
2017-04-20T11:17:33.346Z,1029.58
2017-04-20T11:18:33.230Z,1029.59
2017-04-20T11:19:33.225Z,1029.62
2017-04-20T11:20:33.211Z,1029.54
2017-04-20T11:21:33.249Z,1029.52
2017-04-20T11:22:33.184Z,1029.5
2017-04-20T11:23:33.171Z,1029.47
2017-04-20T11:24:33.160Z,1029.48
2017-04-20T11:25:33.201Z,1029.51
2017-04-20T11:26:33.131Z,1029.48
2017-04-20T11:27:33.183Z,1029.47
2017-04-20T11:28:33.105Z,1029.45
2017-04-20T11:29:33.097Z,1029.51
2017-04-20T11:30:33.085Z,1029.52
2017-04-20T11:31:33.085Z,1029.43
2017-04-20T11:32:33.056Z,1029.48
2017-04-20T11:33:33.043Z,1029.48
2017-04-20T11:34:33.033Z,1029.45
2017-04-20T11:35:33.018Z,1029.43
2017-04-20T11:36:33.003Z,1029.42
2017-04-20T11:37:32.991Z,1029.38
2017-04-20T11:38:32.979Z,1029.36
2017-04-20T11:39:32.975Z,1029.41
2017-04-20T11:40:32.960Z,1029.33
2017-04-20T11:41:32.944Z,1029.39
2017-04-20T11:42:32.930Z,1029.25
2017-04-20T11:43:32.916Z,1029.33
2017-04-20T11:44:32.902Z,1029.26
2017-04-20T11:45:32.899Z,1029.32
2017-04-20T11:46:32.875Z,1029.36
2017-04-20T11:47:32.861Z,1029.35
2017-04-20T11:48:32.846Z,1029.33
2017-04-20T11:49:32.839Z,1029.34
2017-04-20T11:50:32.834Z,1029.33
2017-04-20T11:51:32.810Z,1029.32
2017-04-20T11:52:32.797Z,1029.21
2017-04-20T11:53:32.782Z,1029.22
2017-04-20T11:54:32.770Z,1029.25
2017-04-20T11:55:32.770Z,1029.25
2017-04-20T11:56:32.743Z,1029.27
2017-04-20T11:57:32.732Z,1029.24
2017-04-20T11:58:32.723Z,1029.26
2017-04-20T11:59:32.702Z,1029.21
2017-04-20T12:00:32.689Z,1029.23
2017-04-20T12:01:32.683Z,1029.21
2017-04-20T12:02:32.658Z,1029.2
2017-04-20T12:03:32.652Z,1029.14
2017-04-20T12:04:32.643Z,1029.16
2017-04-20T12:05:32.631Z,1029.18
2017-04-20T12:06:32.611Z,1029.16
2017-04-20T12:07:32.602Z,1029.12
2017-04-20T12:08:32.583Z,1029.15